Terminal Aerodrome Forecast
Issued by NWS Sterling, VA

Current Version | Previous Version | Text Only | Print | Product List | Glossary Off
Versions: 1 2 3 4 5 6 7 8 9 10 11 12 13 14 15 16 17 18 19 20 21 22

000
FTUS41 KLWX 070259 AAB
TAFDCA
TAF AMD
KDCA 070259Z 0703/0724 01011KT 6SM -RA OVC009
     FM070900 35006KT 4SM BR OVC008
     FM071400 32009KT P6SM BKN015
     FM071600 32009KT P6SM SCT030
     FM071800 32009KT P6SM FEW150=

USA.gov is the U.S. government's official web portal to all federal, state and local government web resources and services.